Time;durP1;ratioP1;P1;durP2;ratioP2;P2;SDS_P1;SDS_P2;PMS_P1;PMS_P2;Temp;Humidity;BMP_temperature;BMP_pressure;BME280_temperature;BME280_humidity;BME280_pressure;Samples;Min_cycle;Max_cycle;Signal;HPM_P1;HPM_P2
2022/12/25 00:02:11;;;;;;;7.75;4.65;;;;;;;25.41;23.98;98251.69;4996246;28;20973;-88
2022/12/25 00:04:38;;;;;;;7.85;4.65;;;;;;;25.49;23.81;98254.38;4996757;28;20433;-88
2022/12/25 00:07:04;;;;;;;8.40;4.60;;;;;;;25.67;23.53;98263.94;4994310;28;20404;-88
2022/12/25 00:09:30;;;;;;;9.23;4.50;;;;;;;25.85;23.96;98264.28;4996431;28;20426;-88
2022/12/25 00:11:56;;;;;;;6.78;4.35;;;;;;;25.33;24.24;98274.81;4996951;28;20398;-88
2022/12/25 00:14:22;;;;;;;9.68;5.20;;;;;;;25.08;24.37;98277.41;4996547;28;20814;-88
2022/12/25 00:16:48;;;;;;;8.15;4.60;;;;;;;24.43;25.30;98273.59;4979252;28;20786;-88
2022/12/25 00:19:15;;;;;;;7.65;4.40;;;;;;;23.56;27.10;98276.75;4990777;28;20404;-88
2022/12/25 00:21:41;;;;;;;7.70;4.57;;;;;;;23.79;26.39;98276.75;4977183;28;20903;-88
2022/12/25 00:24:08;;;;;;;6.60;4.00;;;;;;;23.71;27.33;98284.50;4993962;28;20467;-87
2022/12/25 00:26:34;;;;;;;8.23;4.47;;;;;;;23.28;27.46;98287.19;5016218;28;20396;-88
2022/12/25 00:29:00;;;;;;;7.10;3.92;;;;;;;23.76;26.78;98284.00;5015712;28;20800;-88
2022/12/25 00:31:26;;;;;;;6.47;3.88;;;;;;;23.89;27.19;98296.22;5015559;28;20505;-88
2022/12/25 00:33:53;;;;;;;6.67;3.97;;;;;;;24.74;25.66;98289.75;5015809;28;20489;-88
2022/12/25 00:36:23;;;;;;;7.63;4.00;;;;;;;25.47;25.00;98294.19;5003285;28;20780;-87
2022/12/25 00:38:50;;;;;;;6.43;3.75;;;;;;;25.96;24.35;98297.75;4996073;28;20874;-88
2022/12/25 00:42:17;;;;;;;6.07;3.67;;;;;;;26.36;23.87;98298.31;4994391;28;20408;-88
2022/12/25 00:44:10;;;;;;;7.30;4.00;;;;;;;26.81;23.88;98304.72;4995022;28;20402;-88
2022/12/25 00:46:36;;;;;;;9.77;4.88;;;;;;;27.05;22.78;98305.19;4996024;28;20412;-88
2022/12/25 00:49:03;;;;;;;7.28;4.20;;;;;;;27.14;22.90;98303.28;4978639;28;20472;-88
2022/12/25 00:51:29;;;;;;;8.90;5.07;;;;;;;27.03;22.83;98310.47;4977983;28;20450;-88
2022/12/25 00:53:55;;;;;;;9.93;6.17;;;;;;;26.81;22.76;98310.34;4996196;28;20414;-88
2022/12/25 00:56:21;;;;;;;8.00;5.13;;;;;;;26.38;23.29;98332.44;4966932;28;20428;-88
2022/12/25 00:58:47;;;;;;;6.80;4.88;;;;;;;26.40;23.28;98333.59;4978397;28;20420;-88
2022/12/25 01:01:13;;;;;;;7.10;4.00;;;;;;;26.37;23.56;98328.84;4991774;28;20442;-88
2022/12/25 01:03:40;;;;;;;6.20;3.70;;;;;;;26.36;23.63;98327.28;4989967;28;20493;-88
2022/12/25 01:06:07;;;;;;;6.90;4.38;;;;;;;26.58;23.21;98333.13;4995106;28;20403;-89
2022/12/25 01:08:36;;;;;;;7.17;4.63;;;;;;;26.58;22.80;98344.38;4994344;28;20778;-88
2022/12/25 01:11:06;;;;;;;7.28;4.30;;;;;;;26.63;23.17;98357.91;4995564;28;20408;-88
2022/12/25 01:13:33;;;;;;;6.82;4.18;;;;;;;26.50;23.23;98355.03;4995821;28;20498;-88
2022/12/25 01:16:06;;;;;;;6.88;3.90;;;;;;;26.68;23.17;98355.34;4979254;28;20408;-88
2022/12/25 01:18:32;;;;;;;5.45;3.63;;;;;;;26.58;23.36;98362.03;4958526;28;20401;-88
2022/12/25 01:21:04;;;;;;;6.25;4.05;;;;;;;26.11;23.80;98360.94;4979278;28;20423;-88
2022/12/25 01:23:30;;;;;;;5.47;3.28;;;;;;;26.52;23.94;98368.66;4995218;28;20408;-88
2022/12/25 01:26:01;;;;;;;5.45;3.50;;;;;;;26.81;23.23;98360.25;4995247;28;20894;-88
2022/12/25 01:28:27;;;;;;;5.55;3.50;;;;;;;26.74;22.80;98359.19;4977411;28;20549;-88
2022/12/25 01:30:53;;;;;;;4.27;3.20;;;;;;;26.61;22.79;98368.81;4995147;28;20775;-88
2022/12/25 01:33:20;;;;;;;4.93;3.23;;;;;;;26.58;22.95;98372.53;4976905;28;20809;-88
2022/12/25 01:35:46;;;;;;;5.40;3.45;;;;;;;26.74;22.85;98369.69;4975864;28;20443;-89
2022/12/25 01:38:12;;;;;;;4.93;3.13;;;;;;;26.81;22.91;98363.06;4975643;28;20483;-89
2022/12/25 01:40:38;;;;;;;5.53;3.20;;;;;;;26.65;22.52;98364.66;4974544;28;20772;-89
2022/12/25 01:43:32;;;;;;;5.30;3.50;;;;;;;26.18;23.30;98374.03;4975609;28;20404;-89
2022/12/25 01:45:59;;;;;;;4.22;2.85;;;;;;;26.31;23.24;98375.66;4973183;28;20386;-88
2022/12/25 01:48:38;;;;;;;5.10;2.70;;;;;;;26.54;23.24;98378.25;4979083;28;20433;-88
2022/12/25 01:51:31;;;;;;;4.72;2.80;;;;;;;26.40;23.29;98372.22;4976093;28;20407;-88
2022/12/25 01:54:02;;;;;;;5.18;2.85;;;;;;;26.19;23.78;98362.31;4975487;28;20414;-88
2022/12/25 01:56:29;;;;;;;4.03;2.30;;;;;;;26.05;23.65;98366.25;4974881;28;20495;-88
2022/12/25 01:58:57;;;;;;;4.17;2.80;;;;;;;26.25;23.55;98366.19;4975052;28;20416;-88
2022/12/25 02:01:23;;;;;;;3.03;2.30;;;;;;;26.30;23.66;98370.50;4975311;28;20422;-88
2022/12/25 02:03:52;;;;;;;3.00;2.17;;;;;;;26.60;23.54;98373.69;4991677;28;20408;-88
2022/12/25 02:06:19;;;;;;;2.95;1.92;;;;;;;26.88;23.33;98374.16;4984000;28;20418;-88
2022/12/25 02:08:45;;;;;;;2.05;1.40;;;;;;;26.92;23.16;98369.19;4975364;28;20472;-88
2022/12/25 02:11:55;;;;;;;2.97;1.90;;;;;;;26.78;22.77;98373.22;4974533;28;20396;-88
2022/12/25 02:13:57;;;;;;;3.50;1.88;;;;;;;26.79;22.72;98374.81;4974879;28;20471;-88
2022/12/25 02:16:29;;;;;;;3.28;1.98;;;;;;;26.73;22.57;98387.81;4975396;28;20851;-88
2022/12/25 02:19:01;;;;;;;4.87;2.07;;;;;;;26.41;23.41;98391.50;4957473;28;20792;-88
2022/12/25 02:21:45;;;;;;;3.67;2.10;;;;;;;26.47;22.96;98392.53;4993051;28;20436;-88
2022/12/25 02:24:34;;;;;;;3.28;2.30;;;;;;;26.08;23.22;98378.66;4981465;28;20453;-89
2022/12/25 02:27:06;;;;;;;3.63;2.40;;;;;;;25.95;23.79;98386.22;4957621;28;20409;-88
2022/12/25 02:29:48;;;;;;;5.18;3.05;;;;;;;26.04;23.45;98384.34;4976674;28;20461;-88
2022/12/25 02:32:45;;;;;;;4.22;2.55;;;;;;;26.03;23.00;98387.63;4994122;28;20434;-88
2022/12/25 02:35:19;;;;;;;5.65;2.80;;;;;;;25.37;23.87;98385.13;4994379;28;20402;-88
2022/12/25 02:37:54;;;;;;;4.35;2.65;;;;;;;25.63;23.60;98389.00;4993723;28;20437;-88
2022/12/25 02:40:30;;;;;;;6.50;2.97;;;;;;;25.38;24.28;98387.53;4993170;28;20402;-88
2022/12/25 03:08:33;;;;;;;4.27;2.30;;;;;;;23.85;27.24;98407.63;4993145;28;20518;-88
2022/12/25 03:16:56;;;;;;;3.60;2.10;;;;;;;24.51;26.22;98415.34;4974060;28;20443;-88
2022/12/25 03:28:16;;;;;;;3.15;2.00;;;;;;;26.04;24.25;98414.53;4933136;29;20427;-88
2022/12/25 03:31:20;;;;;;;2.42;1.48;;;;;;;26.59;22.98;98414.34;4970165;28;20497;-88
2022/12/25 04:38:31;;;;;;;3.07;2.10;;;;;;;25.49;22.38;98456.78;4973879;28;20415;-88
2022/12/25 04:40:58;;;;;;;4.38;2.83;;;;;;;25.45;22.29;98454.06;4972678;28;20401;-88
2022/12/25 04:43:24;;;;;;;3.40;2.25;;;;;;;25.57;22.96;98458.25;4974638;28;20410;-88
2022/12/25 04:45:59;;;;;;;4.03;2.38;;;;;;;25.67;22.80;98457.22;4975706;28;20763;-88
2022/12/25 04:48:26;;;;;;;3.20;2.13;;;;;;;25.70;22.32;98464.75;4976505;28;20466;-88
2022/12/25 04:50:53;;;;;;;4.93;2.65;;;;;;;25.27;22.49;98467.69;4976709;28;20405;-87
2022/12/25 04:53:19;;;;;;;3.87;2.30;;;;;;;25.08;23.31;98479.72;4976424;28;20397;-87
2022/12/25 04:55:45;;;;;;;2.83;2.00;;;;;;;25.21;23.94;98473.00;4981948;28;20490;-88
2022/12/25 04:58:11;;;;;;;2.65;2.03;;;;;;;25.62;23.17;98480.22;4976033;28;20416;-88
2022/12/25 05:00:38;;;;;;;3.30;2.20;;;;;;;25.93;22.86;98487.94;4976412;28;20420;-88
2022/12/25 05:03:04;;;;;;;3.93;2.30;;;;;;;26.17;21.84;98482.19;4975378;28;20413;-88
2022/12/25 05:05:30;;;;;;;2.95;2.00;;;;;;;25.68;21.88;98481.28;4974690;28;20421;-87
2022/12/25 05:07:56;;;;;;;2.97;2.28;;;;;;;25.62;22.21;98486.66;4975907;28;20420;-88
2022/12/25 05:10:23;;;;;;;3.10;2.03;;;;;;;25.90;22.36;98486.03;4976381;28;20404;-88
2022/12/25 05:12:49;;;;;;;2.50;1.75;;;;;;;25.96;22.58;98489.88;4981793;28;20402;-86
2022/12/25 05:15:15;;;;;;;3.07;2.07;;;;;;;26.15;22.25;98484.66;4976658;28;21023;-88
2022/12/25 05:17:42;;;;;;;3.13;2.27;;;;;;;26.23;21.87;98491.72;4995535;28;20413;-88
2022/12/25 05:20:08;;;;;;;2.90;2.00;;;;;;;26.15;22.27;98490.28;4995436;28;20378;-88
2022/12/25 05:22:34;;;;;;;2.50;1.73;;;;;;;26.22;21.95;98481.66;4978164;28;20395;-88
2022/12/25 05:25:00;;;;;;;2.83;1.70;;;;;;;26.19;21.88;98476.91;4974727;28;20925;-88
2022/12/25 05:27:26;;;;;;;2.47;1.90;;;;;;;26.09;22.07;98490.00;4995320;28;20402;-88
2022/12/25 05:29:52;;;;;;;2.13;1.67;;;;;;;26.03;21.67;98492.53;4994067;28;20422;-88
2022/12/25 05:32:18;;;;;;;2.40;2.07;;;;;;;25.87;22.18;98497.34;4995346;28;20471;-88
2022/12/25 05:34:45;;;;;;;3.07;2.20;;;;;;;25.77;22.60;98495.53;4993647;28;20416;-88
2022/12/25 05:37:11;;;;;;;2.78;2.00;;;;;;;25.95;22.53;98490.34;4977929;28;20793;-88
2022/12/25 05:39:37;;;;;;;2.95;1.90;;;;;;;25.95;22.88;98490.34;4995109;28;20763;-88
2022/12/25 05:42:03;;;;;;;1.95;1.70;;;;;;;26.06;22.60;98494.47;4994836;28;20402;-88
2022/12/25 05:44:29;;;;;;;2.45;1.80;;;;;;;26.30;22.46;98497.94;4995195;28;20898;-88
2022/12/25 05:46:55;;;;;;;3.08;1.83;;;;;;;26.38;22.17;98509.81;4969783;28;20404;-89
2022/12/25 05:49:21;;;;;;;4.10;1.77;;;;;;;26.44;22.09;98514.50;4958227;28;20941;-89
2022/12/25 05:51:47;;;;;;;2.88;1.98;;;;;;;26.53;22.29;98525.16;4975632;28;20791;-88
2022/12/25 05:54:14;;;;;;;2.50;1.85;;;;;;;26.05;22.77;98529.47;4975251;28;20403;-89
2022/12/25 05:56:40;;;;;;;2.80;2.05;;;;;;;25.89;22.94;98537.06;4981060;28;20456;-88
2022/12/25 05:59:06;;;;;;;3.13;1.77;;;;;;;25.94;22.63;98537.38;4976088;28;20408;-88
2022/12/25 06:01:32;;;;;;;2.45;1.50;;;;;;;26.01;23.52;98537.22;4975458;28;20471;-88
2022/12/25 06:03:58;;;;;;;2.67;1.75;;;;;;;26.30;22.87;98539.41;4979826;28;20397;-88
2022/12/25 06:06:25;;;;;;;2.97;1.65;;;;;;;26.57;22.64;98539.94;4974865;28;20498;-88
2022/12/25 06:08:53;;;;;;;2.70;1.90;;;;;;;26.02;22.15;98552.06;4975241;28;20438;-88
2022/12/25 06:11:20;;;;;;;2.97;2.20;;;;;;;25.09;23.48;98546.72;4975246;28;20392;-89
2022/12/25 06:13:49;;;;;;;2.25;1.73;;;;;;;25.38;23.08;98553.38;4975649;28;20400;-89
2022/12/25 06:16:16;;;;;;;2.35;1.33;;;;;;;25.65;22.93;98532.81;4993574;28;20417;-89
2022/12/25 06:18:45;;;;;;;2.28;1.65;;;;;;;25.84;23.29;98535.56;4994270;28;20391;-89
2022/12/25 06:21:14;;;;;;;1.87;1.40;;;;;;;25.95;23.20;98530.50;4968448;28;20399;-89
2022/12/25 06:23:40;;;;;;;2.10;1.42;;;;;;;26.09;23.00;98537.84;4974933;28;20408;-89
2022/12/25 06:26:09;;;;;;;1.60;1.40;;;;;;;25.99;22.45;98534.03;4974318;28;20812;-89
2022/12/25 06:28:35;;;;;;;6.20;1.65;;;;;;;25.49;23.18;98546.75;4974563;28;20428;-89
2022/12/25 06:31:10;;;;;;;1.50;1.27;;;;;;;25.73;23.52;98551.09;4979279;28;20430;-89
2022/12/25 06:33:36;;;;;;;1.83;1.10;;;;;;;26.00;23.31;98551.69;4994071;28;20408;-89
2022/12/25 06:36:07;;;;;;;1.80;1.23;;;;;;;26.18;22.95;98554.16;4980753;28;20395;-89
2022/12/25 06:38:34;;;;;;;1.90;1.40;;;;;;;26.21;21.87;98556.09;4976025;28;20410;-88
2022/12/25 06:41:12;;;;;;;1.83;1.52;;;;;;;25.24;23.12;98556.47;4974967;28;20396;-89
2022/12/25 06:43:38;;;;;;;1.40;1.30;;;;;;;25.32;23.69;98559.94;4974658;28;20403;-89
2022/12/25 06:46:10;;;;;;;1.35;1.25;;;;;;;25.59;23.18;98568.25;4974870;28;20814;-88
2022/12/25 06:48:39;;;;;;;1.30;1.20;;;;;;;25.85;22.89;98570.13;4956818;28;20491;-88
2022/12/25 06:51:05;;;;;;;1.70;1.30;;;;;;;26.07;23.07;98574.06;4974656;28;20396;-88
2022/12/25 06:53:32;;;;;;;2.43;1.60;;;;;;;26.25;22.95;98582.94;4974346;28;20398;-88
2022/12/25 06:56:06;;;;;;;3.40;1.43;;;;;;;26.38;22.67;98589.47;4983852;28;20438;-89
2022/12/25 06:58:32;;;;;;;2.33;1.40;;;;;;;26.46;22.82;98593.72;4987811;28;20405;-89
2022/12/25 07:00:59;;;;;;;1.38;1.20;;;;;;;26.38;22.61;98592.28;4980147;28;20432;-89
2022/12/25 07:03:27;;;;;;;1.70;1.30;;;;;;;26.22;22.54;98602.72;4974321;28;20741;-88
2022/12/25 07:05:53;;;;;;;1.70;1.30;;;;;;;25.62;23.68;98603.97;4975653;28;20484;-89
2022/12/25 07:08:19;;;;;;;1.58;1.27;;;;;;;26.02;23.79;98602.72;4993713;28;20988;-88
2022/12/25 07:10:45;;;;;;;1.42;1.33;;;;;;;25.94;23.48;98612.53;4993708;28;20390;-88
2022/12/25 07:13:11;;;;;;;1.10;1.00;;;;;;;26.25;23.59;98619.53;4987400;28;20409;-89
2022/12/25 07:15:38;;;;;;;1.10;1.00;;;;;;;26.55;22.86;98627.69;4993163;28;20421;-88
2022/12/25 07:18:04;;;;;;;0.98;0.80;;;;;;;26.59;22.94;98630.41;4993311;28;20416;-89
2022/12/25 07:20:30;;;;;;;1.20;0.95;;;;;;;26.65;22.66;98629.44;4993530;28;20402;-89
2022/12/25 07:22:56;;;;;;;1.05;0.82;;;;;;;26.67;22.72;98629.84;4976066;28;20409;-89
2022/12/25 07:25:22;;;;;;;1.27;1.02;;;;;;;26.89;23.02;98632.94;4993737;28;20470;-89
2022/12/25 07:27:48;;;;;;;2.08;1.23;;;;;;;27.04;22.37;98642.63;4993007;28;20409;-90
2022/12/25 07:30:15;;;;;;;1.27;1.10;;;;;;;27.08;22.44;98645.34;4991412;28;20445;-90
2022/12/25 07:32:41;;;;;;;1.40;1.30;;;;;;;27.16;22.58;98647.56;4975329;28;20439;-90
2022/12/25 07:35:07;;;;;;;1.45;1.30;;;;;;;27.30;22.33;98649.22;4987105;28;20407;-90
2022/12/25 07:37:33;;;;;;;1.35;1.20;;;;;;;27.35;22.11;98666.38;4974244;28;20420;-90
2022/12/25 07:39:59;;;;;;;2.05;1.55;;;;;;;27.05;22.52;98680.06;4974077;28;20761;-89
2022/12/25 07:42:26;;;;;;;1.30;1.20;;;;;;;26.67;22.47;98677.72;4973731;28;20922;-90
2022/12/25 07:44:52;;;;;;;2.05;1.27;;;;;;;26.63;22.84;98674.16;4973452;28;20454;-89
2022/12/25 07:47:18;;;;;;;1.60;1.30;;;;;;;26.67;22.99;98679.75;4956413;28;20967;-89
2022/12/25 07:49:44;;;;;;;1.30;1.20;;;;;;;26.88;22.74;98679.28;4956116;28;20853;-89
2022/12/25 07:52:10;;;;;;;1.55;1.20;;;;;;;26.58;22.42;98688.00;4973674;28;20404;-89
2022/12/25 07:54:39;;;;;;;1.35;1.25;;;;;;;25.75;23.19;98681.63;4973444;28;20475;-89
2022/12/25 07:57:06;;;;;;;1.00;0.90;;;;;;;25.94;24.09;98682.88;4973350;28;20811;-89
2022/12/25 07:59:32;;;;;;;1.48;1.10;;;;;;;26.03;23.88;98689.53;4973288;28;20412;-89
2022/12/25 08:01:58;;;;;;;1.20;1.10;;;;;;;26.38;23.37;98693.66;4956264;28;20507;-89
2022/12/25 08:04:25;;;;;;;1.95;1.30;;;;;;;26.85;23.08;98699.06;4974066;28;20443;-89
2022/12/25 08:06:51;;;;;;;1.35;1.25;;;;;;;27.18;22.93;98698.66;4962727;28;20414;-89
2022/12/25 08:09:17;;;;;;;1.50;1.30;;;;;;;27.43;23.01;98698.06;4992822;28;20418;-89
2022/12/25 08:11:46;;;;;;;1.70;1.50;;;;;;;27.50;22.84;98692.22;4975404;28;20537;-89
2022/12/25 08:14:13;;;;;;;1.77;1.40;;;;;;;27.58;22.55;98693.63;4992681;28;20466;-89
2022/12/25 08:16:40;;;;;;;2.30;1.50;;;;;;;27.59;22.94;98686.75;4993436;28;20404;-89
2022/12/25 08:19:08;;;;;;;1.58;1.30;;;;;;;27.59;22.88;98685.94;4996108;28;20411;-89
2022/12/25 08:21:34;;;;;;;1.88;1.60;;;;;;;27.74;23.12;98681.53;4977734;28;20430;-89
2022/12/25 08:24:01;;;;;;;2.10;1.40;;;;;;;27.94;22.87;98682.16;4977375;28;20396;-89
2022/12/25 08:26:28;;;;;;;2.63;1.60;;;;;;;27.82;22.80;98682.94;4977537;28;20978;-89
2022/12/25 08:28:54;;;;;;;1.80;1.45;;;;;;;27.47;23.71;98686.69;4996227;28;20963;-89
2022/12/25 08:31:23;;;;;;;1.60;1.50;;;;;;;27.48;23.67;98689.06;4959467;28;20470;-89
2022/12/25 08:33:52;;;;;;;1.90;1.50;;;;;;;27.67;23.27;98690.97;4975727;28;20462;-88
2022/12/25 08:36:19;;;;;;;2.03;1.73;;;;;;;27.66;23.27;98680.91;4978176;28;20764;-89
2022/12/25 08:38:46;;;;;;;1.95;1.70;;;;;;;27.76;23.21;98695.97;4989606;28;20478;-89
2022/12/25 08:41:13;;;;;;;2.97;2.15;;;;;;;27.55;23.06;98697.34;4995337;28;20406;-89
2022/12/25 08:43:40;;;;;;;3.80;2.50;;;;;;;27.53;23.62;98694.16;4995930;28;20464;-89
2022/12/25 08:46:06;;;;;;;3.72;2.72;;;;;;;27.64;23.10;98700.31;4996308;28;20398;-88
2022/12/25 08:48:33;;;;;;;3.23;2.10;;;;;;;27.88;23.10;98687.56;4996141;28;20944;-88
2022/12/25 08:51:01;;;;;;;3.35;2.38;;;;;;;28.08;22.80;98688.22;4996321;28;20412;-88
2022/12/25 08:53:27;;;;;;;3.35;2.53;;;;;;;28.15;23.10;98677.97;4990466;28;20400;-88
2022/12/25 08:55:57;;;;;;;3.35;2.40;;;;;;;28.39;23.09;98679.28;4993323;28;20894;-89
2022/12/25 08:58:24;;;;;;;4.05;2.80;;;;;;;28.46;22.44;98682.69;4995545;28;20410;-89
2022/12/25 09:00:50;;;;;;;4.07;2.72;;;;;;;28.61;22.65;98677.44;4978247;28;20406;-89
2022/12/25 09:03:16;;;;;;;4.57;3.20;;;;;;;28.46;22.88;98676.22;4995916;28;20783;-89
2022/12/25 09:05:42;;;;;;;2.85;2.45;;;;;;;28.54;22.46;98674.78;4995762;28;20390;-88
2022/12/25 09:08:08;;;;;;;3.40;2.30;;;;;;;28.46;22.75;98682.69;4995563;28;20936;-89
2022/12/25 09:10:36;;;;;;;3.63;2.72;;;;;;;28.24;22.51;98680.94;4991188;28;20746;-89
2022/12/25 09:13:03;;;;;;;3.92;2.47;;;;;;;27.67;23.08;98696.63;4977125;28;20408;-89
2022/12/25 09:15:29;;;;;;;3.05;2.47;;;;;;;27.47;24.06;98707.22;4995700;28;20732;-89
2022/12/25 09:17:55;;;;;;;3.25;2.45;;;;;;;27.31;23.56;98707.19;4994624;28;20953;-89
2022/12/25 09:20:22;;;;;;;2.63;2.17;;;;;;;27.56;23.57;98715.88;4995523;28;20403;-89
2022/12/25 09:22:48;;;;;;;3.05;2.38;;;;;;;27.59;23.19;98722.63;4995883;28;20482;-89
2022/12/25 09:25:14;;;;;;;2.60;2.20;;;;;;;27.40;23.71;98710.22;4995552;28;20897;-89
2022/12/25 09:27:42;;;;;;;4.03;2.70;;;;;;;27.49;23.72;98718.06;4966494;28;20444;-89
2022/12/25 09:30:09;;;;;;;3.88;2.78;;;;;;;27.93;23.54;98709.63;4958073;28;20437;-89
2022/12/25 09:32:35;;;;;;;3.55;2.80;;;;;;;28.43;23.48;98714.66;4976061;28;20425;-89
2022/12/25 09:35:01;;;;;;;3.15;2.78;;;;;;;28.77;23.02;98718.91;4975780;28;20551;-89
2022/12/25 09:37:28;;;;;;;5.30;3.17;;;;;;;28.74;22.74;98723.44;4976357;28;20455;-88
2022/12/25 09:39:54;;;;;;;3.90;2.70;;;;;;;28.95;22.91;98727.63;4975992;28;20491;-89
2022/12/25 09:42:23;;;;;;;3.95;2.40;;;;;;;29.02;22.08;98725.38;4974447;28;20408;-89
2022/12/25 09:44:56;;;;;;;3.72;2.53;;;;;;;29.09;22.07;98733.63;4976773;28;20510;-88
2022/12/25 09:47:28;;;;;;;3.70;2.30;;;;;;;28.74;22.26;98732.72;4975854;28;20892;-88
2022/12/25 09:50:22;;;;;;;2.63;2.07;;;;;;;28.00;23.29;98732.03;4975440;28;20431;-88
2022/12/25 09:52:53;;;;;;;3.17;2.35;;;;;;;27.43;23.26;98737.53;4975923;28;20784;-88
2022/12/25 09:55:27;;;;;;;3.00;2.13;;;;;;;27.75;23.44;98729.03;4975536;28;20391;-88
2022/12/25 09:57:59;;;;;;;3.25;2.13;;;;;;;27.98;23.84;98728.03;4974805;28;20423;-88
2022/12/25 10:00:53;;;;;;;4.23;2.30;;;;;;;28.29;23.64;98734.81;4984607;28;20443;-88
2022/12/25 10:03:39;;;;;;;3.22;2.05;;;;;;;28.78;23.05;98731.81;4979590;28;20765;-88
2022/12/25 10:06:17;;;;;;;2.72;2.13;;;;;;;28.76;22.66;98737.91;4994632;28;20505;-88
2022/12/25 10:09:04;;;;;;;3.47;2.13;;;;;;;28.91;22.64;98744.72;4994091;28;20786;-88
2022/12/25 10:11:54;;;;;;;2.43;1.90;;;;;;;29.12;22.30;98740.41;4994602;28;20410;-88
2022/12/25 10:14:56;;;;;;;2.50;1.90;;;;;;;28.43;22.72;98744.91;4994214;28;20932;-87
2022/12/25 10:17:28;;;;;;;3.22;2.08;;;;;;;27.42;23.26;98747.25;4991272;28;20406;-87
2022/12/25 10:20:44;;;;;;;2.95;2.00;;;;;;;27.13;23.34;98746.31;4987267;28;20402;-88
2022/12/25 10:23:40;;;;;;;3.67;1.95;;;;;;;26.22;24.58;98749.09;4977029;28;20497;-87
2022/12/25 10:26:21;;;;;;;4.00;2.20;;;;;;;25.79;25.13;98735.03;4992765;28;20906;-87
2022/12/25 10:29:15;;;;;;;3.10;2.10;;;;;;;26.92;24.02;98727.09;4974496;28;20436;-87
2022/12/25 10:31:48;;;;;;;2.40;2.13;;;;;;;26.69;23.85;98722.34;4973684;28;20765;-87
2022/12/25 10:34:15;;;;;;;3.90;2.05;;;;;;;26.12;24.28;98725.56;4974300;28;20395;-87
2022/12/25 10:36:44;;;;;;;4.25;2.17;;;;;;;26.24;24.28;98718.50;4980753;28;20414;-87
2022/12/25 10:39:22;;;;;;;2.33;1.70;;;;;;;26.88;24.05;98712.28;4974321;28;20397;-86
2022/12/25 10:41:51;;;;;;;2.65;1.80;;;;;;;26.26;23.83;98718.84;4974477;28;20404;-87
2022/12/25 10:44:20;;;;;;;3.13;1.80;;;;;;;26.87;22.99;98716.31;4974590;28;20401;-87
2022/12/25 10:46:55;;;;;;;3.58;1.50;;;;;;;27.22;23.50;98713.47;4974281;28;20420;-87
2022/12/25 10:49:24;;;;;;;2.80;1.70;;;;;;;27.39;22.89;98706.63;4974299;28;20958;-87
2022/12/25 10:51:50;;;;;;;3.20;1.45;;;;;;;25.69;25.06;98708.69;4973048;28;20415;-87
2022/12/25 10:54:30;;;;;;;2.92;1.40;;;;;;;26.29;23.53;98704.72;4979207;28;20404;-87
2022/12/25 10:57:02;;;;;;;2.10;1.23;;;;;;;26.58;23.52;98707.72;4974406;28;20419;-87
2022/12/25 10:59:33;;;;;;;2.65;1.40;;;;;;;27.20;22.92;98703.84;4974106;28;20469;-87
2022/12/25 11:02:22;;;;;;;1.52;1.13;;;;;;;28.10;22.87;98699.06;4976258;28;20459;-87
2022/12/25 11:04:50;;;;;;;3.00;1.23;;;;;;;28.67;22.44;98687.72;4993690;28;20408;-86
2022/12/25 11:07:21;;;;;;;1.67;1.30;;;;;;;29.02;21.98;98679.34;4992962;28;20400;-87
2022/12/25 11:10:05;;;;;;;2.20;1.35;;;;;;;29.15;21.24;98669.59;4986824;28;20435;-86
2022/12/25 11:12:40;;;;;;;1.90;1.38;;;;;;;29.18;21.17;98665.88;4973973;28;20403;-87
2022/12/25 11:15:31;;;;;;;1.70;1.20;;;;;;;29.13;20.73;98672.06;4973708;28;20966;-86
2022/12/25 11:17:57;;;;;;;2.17;1.50;;;;;;;28.73;21.10;98666.09;4974018;28;20396;-87
2022/12/25 11:20:24;;;;;;;3.20;1.40;;;;;;;28.58;21.53;98664.97;4973729;28;20406;-86
2022/12/25 11:22:51;;;;;;;1.95;1.30;;;;;;;28.85;21.09;98661.69;4973756;28;20816;-87
2022/12/25 11:25:26;;;;;;;1.97;1.37;;;;;;;28.87;21.87;98659.19;4974108;28;20384;-87
2022/12/25 11:28:01;;;;;;;1.38;1.20;;;;;;;29.20;21.51;98654.09;4978718;28;20503;-87
2022/12/25 11:30:32;;;;;;;1.97;1.43;;;;;;;29.53;20.88;98663.09;4973674;28;20391;-87
2022/12/25 11:33:03;;;;;;;1.90;1.40;;;;;;;29.47;20.90;98665.72;4973713;28;20413;-87
2022/12/25 11:35:36;;;;;;;2.00;1.50;;;;;;;29.25;21.40;98660.00;4988457;28;20493;-86
2022/12/25 11:38:03;;;;;;;2.67;1.60;;;;;;;29.32;21.66;98667.44;4992812;28;20398;-87
2022/12/25 11:40:48;;;;;;;2.08;1.20;;;;;;;29.45;21.72;98659.72;4992980;28;20398;-87
2022/12/25 11:43:34;;;;;;;1.80;1.27;;;;;;;29.24;21.28;98647.09;4989914;28;20479;-87
2022/12/25 11:46:18;;;;;;;2.03;1.70;;;;;;;29.02;21.14;98651.84;4973224;28;20415;-87
2022/12/25 11:48:56;;;;;;;1.73;1.38;;;;;;;28.82;21.61;98659.78;4973342;28;20768;-87
2022/12/25 11:51:27;;;;;;;1.77;1.30;;;;;;;29.02;21.88;98659.53;4973131;28;20388;-87
2022/12/25 11:53:59;;;;;;;2.55;1.48;;;;;;;29.15;21.45;98666.00;4973531;28;20399;-86
2022/12/25 11:56:29;;;;;;;1.80;1.30;;;;;;;29.25;21.29;98667.69;4973329;28;20397;-86
2022/12/25 11:59:24;;;;;;;2.70;1.50;;;;;;;28.40;21.32;98663.91;4973289;28;20863;-86
2022/12/25 12:02:24;;;;;;;1.95;1.25;;;;;;;28.33;22.32;98673.41;4978823;28;20474;-87
2022/12/25 12:05:00;;;;;;;2.47;1.38;;;;;;;28.72;21.61;98658.88;4979144;28;20805;-87
2022/12/25 12:07:31;;;;;;;1.73;1.30;;;;;;;28.84;21.42;98653.69;4992079;28;20482;-87
2022/12/25 12:10:03;;;;;;;2.07;1.33;;;;;;;29.03;22.11;98647.78;4975113;28;20519;-86
2022/12/25 12:12:55;;;;;;;2.73;1.30;;;;;;;29.23;21.45;98642.69;4992933;28;20449;-86
2022/12/25 12:15:28;;;;;;;1.90;1.30;;;;;;;28.82;21.62;98639.22;4984505;28;20410;-86
2022/12/25 12:18:06;;;;;;;1.77;1.40;;;;;;;28.92;21.88;98636.03;4989911;28;20389;-87
2022/12/25 12:20:34;;;;;;;1.83;1.23;;;;;;;29.21;21.49;98639.53;4972924;28;20950;-86
2022/12/25 12:23:09;;;;;;;1.70;1.20;;;;;;;29.32;21.08;98645.59;4973361;28;20392;-87
2022/12/25 12:25:40;;;;;;;1.45;1.00;;;;;;;29.47;20.78;98637.44;4973379;28;20791;-87
2022/12/25 12:28:20;;;;;;;2.10;1.40;;;;;;;29.57;21.34;98643.97;4990034;28;20417;-87
2022/12/25 12:30:57;;;;;;;2.05;1.48;;;;;;;29.61;21.10;98653.09;4992531;28;20413;-87
2022/12/25 12:33:26;;;;;;;2.42;1.20;;;;;;;29.77;20.81;98650.91;4992283;28;20919;-87
2022/12/25 12:35:52;;;;;;;2.00;1.13;;;;;;;29.82;20.07;98649.53;4981646;28;20408;-87
2022/12/25 12:38:21;;;;;;;2.10;1.30;;;;;;;29.61;20.85;98648.25;4972982;28;20415;-87
2022/12/25 12:40:50;;;;;;;1.90;1.13;;;;;;;29.49;21.78;98649.06;4973198;28;20807;-87
2022/12/25 12:43:27;;;;;;;2.15;1.40;;;;;;;29.57;21.10;98650.38;4973190;28;20465;-86
2022/12/25 12:46:14;;;;;;;2.97;1.40;;;;;;;29.53;20.91;98655.38;4971659;28;20997;-87
2022/12/25 12:48:44;;;;;;;2.05;1.30;;;;;;;29.52;20.81;98641.72;4972782;28;20804;-87
2022/12/25 12:51:32;;;;;;;2.47;1.47;;;;;;;29.33;21.02;98649.22;4973940;28;20506;-87
2022/12/25 12:54:12;;;;;;;2.45;1.60;;;;;;;29.41;21.09;98651.34;4973483;28;20408;-86
2022/12/25 12:56:38;;;;;;;1.35;1.02;;;;;;;29.42;20.74;98652.16;4972847;28;20397;-87
2022/12/25 12:59:08;;;;;;;2.28;1.30;;;;;;;29.15;21.22;98641.31;4981574;28;20476;-87
2022/12/25 13:02:12;;;;;;;1.98;1.50;;;;;;;29.18;21.35;98640.44;4992235;28;20386;-87
2022/12/25 13:05:08;;;;;;;1.70;1.30;;;;;;;29.29;20.97;98637.25;4993373;28;20394;-87
2022/12/25 13:07:42;;;;;;;2.27;1.40;;;;;;;28.93;21.43;98634.00;4995411;28;20928;-87
2022/12/25 13:10:26;;;;;;;3.10;1.60;;;;;;;28.82;21.40;98636.38;4982731;28;20448;-87
2022/12/25 13:13:11;;;;;;;1.88;1.38;;;;;;;29.02;21.88;98637.72;4976141;28;20396;-87
2022/12/25 13:15:38;;;;;;;2.67;1.50;;;;;;;28.60;21.45;98641.91;4976022;28;20415;-87
2022/12/25 13:18:11;;;;;;;1.70;1.30;;;;;;;28.91;21.30;98633.66;4976448;28;20824;-87
2022/12/25 13:20:55;;;;;;;2.05;1.52;;;;;;;28.90;21.18;98632.88;4974746;28;20396;-87
2022/12/25 13:23:26;;;;;;;2.92;1.60;;;;;;;28.89;21.27;98633.31;4976434;28;20400;-87
2022/12/25 13:25:57;;;;;;;1.63;1.50;;;;;;;28.74;20.66;98630.97;4975951;28;20411;-87
2022/12/25 13:28:27;;;;;;;2.90;1.35;;;;;;;28.46;21.52;98626.19;4975512;28;20428;-86
2022/12/25 13:30:59;;;;;;;2.63;1.37;;;;;;;28.38;21.59;98632.50;4975891;28;20402;-87
2022/12/25 13:33:26;;;;;;;1.53;1.40;;;;;;;28.57;21.73;98646.41;4975650;28;20825;-87
2022/12/25 13:35:52;;;;;;;2.28;1.40;;;;;;;28.64;22.01;98651.06;4975781;28;20447;-87
2022/12/25 13:38:21;;;;;;;2.78;1.50;;;;;;;28.77;21.29;98643.41;4992347;28;20402;-87